createdAt,value
2023-01-05T00:01:40.383Z,71.10
2023-01-05T00:04:09.166Z,71.12
2023-01-05T00:06:39.557Z,70.94
2023-01-05T00:09:09.312Z,70.80
2023-01-05T00:11:56.528Z,71.03
2023-01-05T00:14:45.400Z,70.73
2023-01-05T00:17:33.827Z,70.74
2023-01-05T00:20:20.285Z,70.78
2023-01-05T00:22:50.449Z,70.91
2023-01-05T00:25:20.843Z,71.16
2023-01-05T00:27:51.877Z,70.91
2023-01-05T00:30:22.304Z,71.09
2023-01-05T00:32:51.044Z,71.38
2023-01-05T00:35:19.757Z,71.41
2023-01-05T00:37:49.899Z,71.48
2023-01-05T00:40:20.974Z,71.28
2023-01-05T00:42:50.670Z,71.15
2023-01-05T00:45:22.055Z,71.31
2023-01-05T00:47:51.814Z,71.32
2023-01-05T00:50:22.473Z,71.43
2023-01-05T00:52:51.312Z,71.54
2023-01-05T00:55:19.888Z,70.55
2023-01-05T00:57:48.247Z,71.46
2023-01-05T01:00:19.929Z,71.50
2023-01-05T01:02:52.247Z,71.16
2023-01-05T01:05:20.897Z,71.22
2023-01-05T01:07:49.886Z,71.13
2023-01-05T01:10:18.594Z,70.78
2023-01-05T01:12:47.316Z,71.20
2023-01-05T01:15:15.725Z,70.90
2023-01-05T01:17:46.474Z,71.00
2023-01-05T01:20:14.911Z,70.97
2023-01-05T01:22:43.250Z,70.61
2023-01-05T01:25:11.741Z,71.01
2023-01-05T01:27:40.090Z,70.80
2023-01-05T01:30:10.110Z,71.21
2023-01-05T01:32:38.522Z,70.99
2023-01-05T01:35:09.595Z,70.72
2023-01-05T01:37:38.090Z,70.72
2023-01-05T01:40:08.016Z,70.75
2023-01-05T01:42:36.617Z,71.19
2023-01-05T01:45:19.212Z,71.00
2023-01-05T01:47:50.707Z,71.03
2023-01-05T01:50:24.147Z,70.80
2023-01-05T01:52:56.056Z,70.65
2023-01-05T01:55:24.623Z,70.52
2023-01-05T01:57:53.818Z,70.68
2023-01-05T02:00:22.193Z,70.96
2023-01-05T02:02:54.484Z,71.00
2023-01-05T02:05:29.097Z,70.72
2023-01-05T02:07:57.551Z,71.06
2023-01-05T02:10:46.346Z,70.21
2023-01-05T02:13:31.635Z,70.82
2023-01-05T02:16:08.282Z,70.83
2023-01-05T02:18:54.652Z,70.40
2023-01-05T02:21:35.062Z,71.13
2023-01-05T02:24:34.706Z,70.61
2023-01-05T02:27:37.632Z,70.78
2023-01-05T02:30:33.575Z,70.32
2023-01-05T02:33:12.548Z,70.72
2023-01-05T02:35:50.116Z,71.00
2023-01-05T02:38:24.438Z,70.62
2023-01-05T02:40:58.371Z,70.74
2023-01-05T02:43:29.772Z,71.17
2023-01-05T02:45:58.140Z,71.19
2023-01-05T02:48:28.067Z,70.65
2023-01-05T02:51:01.526Z,71.02
2023-01-05T02:53:34.905Z,70.47
2023-01-05T02:56:10.569Z,70.48
2023-01-05T02:58:44.763Z,71.30
2023-01-05T03:01:18.712Z,70.92
2023-01-05T03:03:53.969Z,70.71
2023-01-05T03:06:26.987Z,71.02
2023-01-05T03:09:00.289Z,71.01
2023-01-05T03:11:52.866Z,70.72
2023-01-05T03:14:28.524Z,70.81
2023-01-05T03:16:58.081Z,70.82
2023-01-05T03:19:40.418Z,71.01
2023-01-05T03:22:32.299Z,71.10
2023-01-05T03:25:18.889Z,71.12
2023-01-05T03:28:06.992Z,70.99
2023-01-05T03:31:09.425Z,71.21
2023-01-05T03:34:02.377Z,70.95
2023-01-05T03:36:39.343Z,71.37
2023-01-05T03:39:10.830Z,71.14
2023-01-05T03:41:40.156Z,71.22
2023-01-05T03:44:09.434Z,70.93
2023-01-05T03:46:40.080Z,71.35
2023-01-05T03:49:08.456Z,71.39
2023-01-05T03:51:42.020Z,71.15
2023-01-05T03:54:10.842Z,71.06
2023-01-05T03:56:39.409Z,71.37
2023-01-05T03:59:07.766Z,71.42
2023-01-05T04:01:36.187Z,71.27
2023-01-05T04:04:04.803Z,71.17
2023-01-05T04:06:33.262Z,71.10
2023-01-05T04:09:03.333Z,71.19
2023-01-05T04:11:31.999Z,71.19
2023-01-05T04:14:02.387Z,71.17
2023-01-05T04:16:30.780Z,71.59
2023-01-05T04:18:59.108Z,71.48
2023-01-05T04:21:27.443Z,71.34
2023-01-05T04:23:56.024Z,71.89
2023-01-05T04:26:25.711Z,71.71
2023-01-05T04:28:54.086Z,72.10
2023-01-05T04:31:22.506Z,71.95
2023-01-05T04:33:50.828Z,71.85
2023-01-05T04:36:19.219Z,72.12
2023-01-05T04:38:47.814Z,71.88
2023-01-05T04:41:16.253Z,71.91
2023-01-05T04:43:46.006Z,71.74
2023-01-05T04:46:14.440Z,71.58
2023-01-05T04:48:42.998Z,72.00
2023-01-05T04:51:14.159Z,71.47
2023-01-05T04:53:42.600Z,71.70
2023-01-05T04:56:11.197Z,71.44
2023-01-05T04:58:39.611Z,71.38
2023-01-05T05:01:09.521Z,71.57
2023-01-05T05:03:38.017Z,71.16
2023-01-05T05:06:06.989Z,71.44
2023-01-05T05:08:35.420Z,71.58
2023-01-05T05:11:03.764Z,71.24
2023-01-05T05:13:32.293Z,71.25
2023-01-05T05:16:00.933Z,71.27
2023-01-05T05:18:30.669Z,71.28
2023-01-05T05:20:59.086Z,71.10
2023-01-05T05:23:27.697Z,71.22
2023-01-05T05:25:56.025Z,71.17
2023-01-05T05:28:28.344Z,71.37
2023-01-05T05:30:57.585Z,71.12
2023-01-05T05:33:26.340Z,70.85
2023-01-05T05:35:56.087Z,70.85
2023-01-05T05:38:24.388Z,70.63
2023-01-05T05:40:52.941Z,71.15
2023-01-05T05:43:21.285Z,70.64
2023-01-05T05:45:50.809Z,70.03
2023-01-05T05:48:19.811Z,70.07
2023-01-05T05:50:48.458Z,70.04
2023-01-05T05:53:18.189Z,70.17
2023-01-05T05:55:49.553Z,70.46
2023-01-05T05:58:18.075Z,70.52
2023-01-05T06:00:46.788Z,70.73
2023-01-05T06:03:15.285Z,70.60
2023-01-05T06:05:43.755Z,70.86
2023-01-05T06:08:12.096Z,70.75
2023-01-05T06:10:41.886Z,70.71
2023-01-05T06:13:11.625Z,70.88
2023-01-05T06:15:39.967Z,70.71
2023-01-05T06:18:08.336Z,70.77
2023-01-05T06:20:36.744Z,70.82
2023-01-05T06:23:05.393Z,70.94
2023-01-05T06:25:34.301Z,70.82
2023-01-05T06:28:04.304Z,70.77
2023-01-05T06:30:32.643Z,70.86
2023-01-05T06:33:01.193Z,70.76
2023-01-05T06:35:29.516Z,71.00
2023-01-05T06:37:57.884Z,71.00
2023-01-05T06:40:26.273Z,71.16
2023-01-05T06:42:54.639Z,71.08
2023-01-05T06:45:24.396Z,71.36
2023-01-05T06:47:52.848Z,71.32
2023-01-05T06:50:21.211Z,71.25
2023-01-05T06:52:49.576Z,71.16
2023-01-05T06:55:18.136Z,71.29
2023-01-05T06:57:46.662Z,71.47
2023-01-05T07:00:16.734Z,71.22
2023-01-05T07:02:46.479Z,71.60
2023-01-05T07:05:14.890Z,71.54
2023-01-05T07:07:43.199Z,71.41
2023-01-05T07:10:11.994Z,71.59
2023-01-05T07:12:40.960Z,71.40
2023-01-05T07:15:10.890Z,71.49
2023-01-05T07:17:39.222Z,71.70
2023-01-05T07:20:09.965Z,71.36
2023-01-05T07:22:38.313Z,71.66
2023-01-05T07:25:07.439Z,71.67
2023-01-05T07:27:37.496Z,71.47
2023-01-05T07:30:06.913Z,71.22
2023-01-05T07:32:35.335Z,71.27
2023-01-05T07:35:03.755Z,71.16
2023-01-05T07:37:33.815Z,71.38
2023-01-05T07:40:02.125Z,71.31
2023-01-05T07:42:30.859Z,71.31
2023-01-05T07:44:59.999Z,71.33
2023-01-05T07:47:28.447Z,71.21
2023-01-05T07:49:56.896Z,71.19
2023-01-05T07:52:25.474Z,71.21
2023-01-05T07:54:55.165Z,71.19
2023-01-05T07:57:23.515Z,71.28
2023-01-05T07:59:52.048Z,71.19
2023-01-05T08:02:21.220Z,71.29
2023-01-05T08:04:49.751Z,71.16
2023-01-05T08:07:18.159Z,71.13
2023-01-05T08:10:04.334Z,71.04
2023-01-05T08:12:54.030Z,70.81
2023-01-05T08:15:22.403Z,70.94
2023-01-05T08:17:50.751Z,70.92
2023-01-05T08:20:19.274Z,71.05
2023-01-05T08:22:51.680Z,70.98
2023-01-05T08:25:20.423Z,71.00
2023-01-05T08:27:50.351Z,71.14
2023-01-05T08:30:18.826Z,71.20
2023-01-05T08:32:47.213Z,70.97
2023-01-05T08:35:15.683Z,71.10
2023-01-05T08:37:45.900Z,71.09
2023-01-05T08:40:14.430Z,71.06
2023-01-05T08:42:42.906Z,71.07
2023-01-05T08:45:12.893Z,71.20
2023-01-05T08:47:41.506Z,71.07
2023-01-05T08:50:10.672Z,71.31
2023-01-05T08:52:40.067Z,71.27
2023-01-05T08:55:09.020Z,71.36
2023-01-05T08:57:37.453Z,71.36
2023-01-05T09:00:07.097Z,71.45
2023-01-05T09:02:36.988Z,71.75
2023-01-05T09:05:06.364Z,71.58
2023-01-05T09:07:37.866Z,71.92
2023-01-05T09:10:07.639Z,71.82
2023-01-05T09:12:36.526Z,71.70
2023-01-05T09:15:07.741Z,71.83
2023-01-05T09:17:40.411Z,71.65
2023-01-05T09:20:09.844Z,71.72
2023-01-05T09:22:38.321Z,71.62
2023-01-05T09:25:07.382Z,71.54
2023-01-05T09:27:36.798Z,71.33
2023-01-05T09:30:05.722Z,71.03
2023-01-05T09:32:34.255Z,71.11
2023-01-05T09:35:04.121Z,71.01
2023-01-05T09:37:32.521Z,70.85
2023-01-05T09:40:00.900Z,70.38
2023-01-05T09:42:34.133Z,70.47
2023-01-05T09:45:06.042Z,70.52
2023-01-05T09:47:41.102Z,70.41
2023-01-05T09:50:20.349Z,70.13
2023-01-05T09:52:49.543Z,70.19
2023-01-05T09:55:20.323Z,70.14
2023-01-05T09:57:54.436Z,70.06
2023-01-05T10:00:25.099Z,69.93
2023-01-05T10:03:10.938Z,69.94
2023-01-05T10:05:46.082Z,69.81
2023-01-05T10:08:21.858Z,69.61
2023-01-05T10:11:11.509Z,69.61
2023-01-05T10:13:44.086Z,69.55
2023-01-05T10:16:17.668Z,69.31
2023-01-05T10:18:47.125Z,69.02
2023-01-05T10:21:27.062Z,68.95
2023-01-05T10:24:08.992Z,69.08
2023-01-05T10:27:23.089Z,68.77
2023-01-05T10:29:42.207Z,68.80
2023-01-05T10:32:24.095Z,68.56
2023-01-05T10:34:57.711Z,68.37
2023-01-05T10:37:58.787Z,68.29
2023-01-05T10:40:36.869Z,68.36
2023-01-05T10:43:25.516Z,68.28
2023-01-05T10:46:28.729Z,68.14
2023-01-05T10:48:42.556Z,68.12
2023-01-05T10:51:11.192Z,68.00
2023-01-05T10:53:44.067Z,67.75
2023-01-05T10:56:16.121Z,67.44
2023-01-05T10:58:46.811Z,67.57
2023-01-05T11:01:23.973Z,67.37
2023-01-05T11:04:25.644Z,67.28
2023-01-05T11:06:45.915Z,67.19
2023-01-05T11:09:22.503Z,67.10
2023-01-05T11:11:55.793Z,67.00
2023-01-05T11:14:25.009Z,67.01
2023-01-05T11:16:56.983Z,67.21
2023-01-05T11:19:31.311Z,67.46
2023-01-05T11:22:02.105Z,67.59
2023-01-05T11:24:35.122Z,68.00
2023-01-05T11:27:05.686Z,68.33
2023-01-05T11:29:34.129Z,68.61
2023-01-05T11:32:04.795Z,68.99
2023-01-05T11:34:42.227Z,69.52
2023-01-05T11:37:24.393Z,69.72
2023-01-05T11:39:57.132Z,69.92
2023-01-05T11:42:34.120Z,70.29
2023-01-05T11:45:07.371Z,70.43
2023-01-05T11:47:43.861Z,70.67
2023-01-05T11:50:22.476Z,70.75
2023-01-05T11:52:53.973Z,71.04
2023-01-05T11:55:38.414Z,71.21
2023-01-05T11:58:25.759Z,71.32
2023-01-05T12:01:29.727Z,71.76
2023-01-05T12:04:05.188Z,71.36
2023-01-05T12:06:53.111Z,71.60
2023-01-05T12:09:32.639Z,71.40
2023-01-05T12:12:24.783Z,71.25
2023-01-05T12:15:08.639Z,70.95
2023-01-05T12:17:46.527Z,70.81
2023-01-05T12:20:33.904Z,70.47
2023-01-05T12:23:24.303Z,70.28
2023-01-05T12:26:04.368Z,70.17
2023-01-05T12:30:15.854Z,69.90
2023-01-05T12:35:49.607Z,69.56
2023-01-05T12:38:36.606Z,69.83
2023-01-05T12:41:55.086Z,69.73
2023-01-05T12:44:51.726Z,70.10
2023-01-05T12:47:34.786Z,70.42
2023-01-05T12:50:15.800Z,71.06
2023-01-05T12:52:49.364Z,71.86
2023-01-05T12:55:22.462Z,72.91
2023-01-05T12:57:57.460Z,73.83
2023-01-05T13:00:32.302Z,74.96
2023-01-05T13:03:03.371Z,75.72
2023-01-05T13:05:35.652Z,76.02
2023-01-05T13:08:10.176Z,76.46
2023-01-05T13:10:46.448Z,77.26
2023-01-05T13:13:18.116Z,77.17
2023-01-05T13:15:56.855Z,77.88
2023-01-05T13:18:27.966Z,77.90
2023-01-05T13:20:58.633Z,78.17
2023-01-05T13:23:31.970Z,78.13
2023-01-05T13:26:05.236Z,78.20
2023-01-05T13:28:34.938Z,78.36
2023-01-05T13:31:32.307Z,79.33
2023-01-05T13:34:23.485Z,79.00
2023-01-05T13:37:24.046Z,78.92
2023-01-05T13:40:22.807Z,78.68
2023-01-05T13:43:09.203Z,79.27
2023-01-05T13:46:08.079Z,79.42
2023-01-05T13:49:04.132Z,78.88
2023-01-05T13:51:47.780Z,78.79
2023-01-05T13:54:20.580Z,78.72
2023-01-05T13:56:51.158Z,79.13
2023-01-05T13:59:35.802Z,79.15
2023-01-05T14:02:28.763Z,78.74
2023-01-05T14:04:59.596Z,78.98
2023-01-05T14:07:28.991Z,78.76
2023-01-05T14:09:58.626Z,79.16
2023-01-05T14:12:48.670Z,78.79
2023-01-05T14:15:41.722Z,79.10
2023-01-05T14:18:10.910Z,78.45
2023-01-05T14:20:44.775Z,78.72
2023-01-05T14:23:46.358Z,78.55
2023-01-05T14:26:14.748Z,78.48
2023-01-05T14:28:46.931Z,78.05
2023-01-05T14:31:49.248Z,78.31
2023-01-05T14:34:21.467Z,77.81
2023-01-05T14:37:03.246Z,77.70
2023-01-05T14:39:37.724Z,77.90
2023-01-05T14:42:09.335Z,77.52
2023-01-05T14:44:44.033Z,77.33
2023-01-05T14:47:12.817Z,77.32
2023-01-05T14:49:44.662Z,77.37
2023-01-05T14:52:20.113Z,77.03
2023-01-05T14:55:26.876Z,76.81
2023-01-05T14:58:07.495Z,76.42
2023-01-05T15:00:41.591Z,76.81
2023-01-05T15:03:19.810Z,76.30
2023-01-05T15:05:55.568Z,76.40
2023-01-05T15:08:49.088Z,76.27
2023-01-05T15:11:44.243Z,76.16
2023-01-05T15:14:46.146Z,75.73
2023-01-05T15:17:50.589Z,75.63
2023-01-05T15:21:09.533Z,75.60
2023-01-05T15:24:00.977Z,75.47
2023-01-05T15:26:45.066Z,75.01
2023-01-05T15:29:49.224Z,74.96
2023-01-05T15:32:21.091Z,74.58
2023-01-05T15:34:54.885Z,74.29
2023-01-05T15:37:33.120Z,74.21
2023-01-05T15:40:05.012Z,74.33
2023-01-05T15:42:39.890Z,73.77
2023-01-05T15:45:16.204Z,73.86
2023-01-05T15:47:45.481Z,73.57
2023-01-05T15:50:20.483Z,73.33
2023-01-05T15:52:55.076Z,73.33
2023-01-05T15:55:26.734Z,73.13
2023-01-05T15:57:57.909Z,72.91
2023-01-05T16:00:30.489Z,72.74
2023-01-05T16:02:59.746Z,72.93
2023-01-05T16:05:29.999Z,72.28
2023-01-05T16:07:59.916Z,72.67
2023-01-05T16:10:37.766Z,72.58
2023-01-05T16:13:13.313Z,72.18
2023-01-05T16:15:43.441Z,72.47
2023-01-05T16:18:17.427Z,72.20
2023-01-05T16:20:50.308Z,72.10
2023-01-05T16:23:24.155Z,72.19
2023-01-05T16:25:57.774Z,72.30
2023-01-05T16:28:27.171Z,72.04
2023-01-05T16:30:56.374Z,71.83
2023-01-05T16:33:34.718Z,71.88
2023-01-05T16:36:20.145Z,71.91
2023-01-05T16:38:49.611Z,72.28
2023-01-05T16:41:24.011Z,71.91
2023-01-05T16:43:56.074Z,72.02
2023-01-05T16:46:45.135Z,72.17
2023-01-05T16:49:33.064Z,71.89
2023-01-05T16:52:02.604Z,72.21
2023-01-05T16:54:39.252Z,72.19
2023-01-05T16:57:38.393Z,72.26
2023-01-05T17:00:37.696Z,72.52
2023-01-05T17:03:28.621Z,72.64
2023-01-05T17:06:00.354Z,72.35
2023-01-05T17:08:31.893Z,72.66
2023-01-05T17:11:01.655Z,72.81
2023-01-05T17:13:38.133Z,73.01
2023-01-05T17:16:11.972Z,72.88
2023-01-05T17:18:40.990Z,73.07
2023-01-05T17:21:13.650Z,73.47
2023-01-05T17:23:46.941Z,73.74
2023-01-05T17:26:19.893Z,74.07
2023-01-05T17:28:48.216Z,74.21
2023-01-05T17:31:17.907Z,73.99
2023-01-05T17:33:46.585Z,74.11
2023-01-05T17:38:45.915Z,75.13
2023-01-05T17:41:16.094Z,75.25
2023-01-05T17:43:45.882Z,75.52
2023-01-05T17:46:19.411Z,75.87
2023-01-05T17:48:48.313Z,76.21
2023-01-05T17:51:16.865Z,76.29
2023-01-05T17:53:52.071Z,76.74
2023-01-05T17:56:20.980Z,77.06
2023-01-05T17:58:49.937Z,76.84
2023-01-05T18:01:20.233Z,77.08
2023-01-05T18:03:49.034Z,77.69
2023-01-05T18:06:17.705Z,77.59
2023-01-05T18:08:46.372Z,77.68
2023-01-05T18:11:16.416Z,78.04
2023-01-05T18:13:46.219Z,78.22
2023-01-05T18:16:16.335Z,78.15
2023-01-05T18:18:46.165Z,78.16
2023-01-05T18:21:14.901Z,78.45
2023-01-05T18:23:43.425Z,78.57
2023-01-05T18:26:11.938Z,78.83
2023-01-05T18:28:40.430Z,79.07
2023-01-05T18:31:13.195Z,78.68
2023-01-05T18:33:42.031Z,78.73
2023-01-05T18:36:14.588Z,78.96
2023-01-05T18:38:43.724Z,78.57
2023-01-05T18:41:13.422Z,78.85
2023-01-05T18:43:41.893Z,79.11
2023-01-05T18:46:10.357Z,79.01
2023-01-05T18:48:39.896Z,78.79
2023-01-05T18:51:09.303Z,78.92
2023-01-05T18:53:39.615Z,78.54
2023-01-05T18:56:09.463Z,79.04
2023-01-05T18:58:38.094Z,78.93
2023-01-05T19:01:09.839Z,79.45
2023-01-05T19:03:38.840Z,78.92
2023-01-05T19:06:08.506Z,79.48
2023-01-05T19:08:37.139Z,79.70
2023-01-05T19:11:14.615Z,79.32
2023-01-05T19:13:45.155Z,79.59
2023-01-05T19:16:15.557Z,79.54
2023-01-05T19:18:45.988Z,79.81
2023-01-05T19:21:14.736Z,79.92
2023-01-05T19:23:43.182Z,80.38
2023-01-05T19:26:13.175Z,80.30
2023-01-05T19:28:41.558Z,80.25
2023-01-05T19:31:11.739Z,80.92
2023-01-05T19:33:41.503Z,80.21
2023-01-05T19:36:11.838Z,80.26
2023-01-05T19:38:41.116Z,80.29
2023-01-05T19:41:13.259Z,80.46
2023-01-05T19:43:42.633Z,80.11
2023-01-05T19:46:14.027Z,80.52
2023-01-05T19:48:43.555Z,80.34
2023-01-05T19:51:14.796Z,80.27
2023-01-05T19:53:44.791Z,80.86
2023-01-05T19:56:16.059Z,80.52
2023-01-05T19:58:44.778Z,80.73
2023-01-05T20:01:15.026Z,80.99
2023-01-05T20:03:44.517Z,80.56
2023-01-05T20:06:15.835Z,80.88
2023-01-05T20:08:45.464Z,80.59
2023-01-05T20:11:15.222Z,80.67
2023-01-05T20:13:43.631Z,81.00
2023-01-05T20:16:13.654Z,80.91
2023-01-05T20:18:42.104Z,81.16
2023-01-05T20:21:10.744Z,81.08
2023-01-05T20:23:40.873Z,80.82
2023-01-05T20:26:11.544Z,80.36
2023-01-05T20:28:41.971Z,80.92
2023-01-05T20:31:17.805Z,80.26
2023-01-05T20:33:46.344Z,80.77
2023-01-05T20:36:15.135Z,80.29
2023-01-05T20:38:44.139Z,80.41
2023-01-05T20:41:17.404Z,80.56
2023-01-05T20:43:48.347Z,80.61
2023-01-05T20:46:18.648Z,79.91
2023-01-05T20:48:49.225Z,80.47
2023-01-05T20:51:18.036Z,80.05
2023-01-05T20:53:46.416Z,80.00
2023-01-05T20:56:19.073Z,79.99
2023-01-05T20:58:50.952Z,80.30
2023-01-05T21:01:19.948Z,80.17
2023-01-05T21:03:48.752Z,80.13
2023-01-05T21:06:20.001Z,80.13
2023-01-05T21:08:49.749Z,79.68
2023-01-05T21:11:19.728Z,80.33
2023-01-05T21:13:51.827Z,80.23
2023-01-05T21:16:23.035Z,80.39
2023-01-05T21:18:51.773Z,79.95
2023-01-05T21:21:21.904Z,80.10
2023-01-05T21:23:51.911Z,80.09
2023-01-05T21:26:21.481Z,79.61
2023-01-05T21:28:53.416Z,79.66
2023-01-05T21:31:25.044Z,80.35
2023-01-05T21:33:54.139Z,79.58
2023-01-05T21:36:25.495Z,79.64
2023-01-05T21:39:00.868Z,79.55
2023-01-05T21:41:49.140Z,79.83
2023-01-05T21:44:20.137Z,79.57
2023-01-05T21:46:49.905Z,79.22
2023-01-05T21:49:18.982Z,79.48
2023-01-05T21:52:05.334Z,79.44
2023-01-05T21:54:51.418Z,78.77
2023-01-05T21:57:20.009Z,78.82
2023-01-05T21:59:49.730Z,78.61
2023-01-05T22:02:18.153Z,78.56
2023-01-05T22:04:46.782Z,78.55
2023-01-05T22:07:15.134Z,78.76
2023-01-05T22:09:43.731Z,78.22
2023-01-05T22:12:12.250Z,78.40
2023-01-05T22:14:40.721Z,78.91
2023-01-05T22:17:10.612Z,78.53
2023-01-05T22:19:39.026Z,78.49
2023-01-05T22:22:07.370Z,78.76
2023-01-05T22:24:35.751Z,78.27
2023-01-05T22:27:04.156Z,78.37
2023-01-05T22:29:32.577Z,78.08
2023-01-05T22:32:03.793Z,78.61
2023-01-05T22:34:33.593Z,78.00
2023-01-05T22:37:02.000Z,77.93
2023-01-05T22:39:30.421Z,78.40
2023-01-05T22:41:59.001Z,77.80
2023-01-05T22:44:27.340Z,77.90
2023-01-05T22:46:55.682Z,78.21
2023-01-05T22:49:24.047Z,77.83
2023-01-05T22:51:53.724Z,77.83
2023-01-05T22:54:22.137Z,77.69
2023-01-05T22:56:50.496Z,77.97
2023-01-05T22:59:18.840Z,77.17
2023-01-05T23:01:47.716Z,77.35
2023-01-05T23:04:16.767Z,77.45
2023-01-05T23:06:45.273Z,77.54
2023-01-05T23:09:16.944Z,77.16
2023-01-05T23:11:46.818Z,77.27
2023-01-05T23:14:18.454Z,77.37
2023-01-05T23:16:47.805Z,77.84
2023-01-05T23:19:16.940Z,78.01
2023-01-05T23:21:45.768Z,78.07
2023-01-05T23:24:15.474Z,78.20
2023-01-05T23:26:43.847Z,77.79
2023-01-05T23:29:13.381Z,77.99
2023-01-05T23:31:43.736Z,77.81
2023-01-05T23:34:12.136Z,77.48
2023-01-05T23:36:40.424Z,77.94
2023-01-05T23:39:08.889Z,77.53
2023-01-05T23:41:38.695Z,77.91
2023-01-05T23:44:08.070Z,77.71
2023-01-05T23:46:36.434Z,77.68
2023-01-05T23:49:05.031Z,78.30
2023-01-05T23:51:33.461Z,78.38
2023-01-05T23:54:01.806Z,78.02
2023-01-05T23:56:31.786Z,78.33
2023-01-05T23:59:05.701Z,78.42
